Schaffen Airfield

EBDT · Vlaams-Brabant, Flanders, 比利时

罗盘
风向 的 Schaffen Airfield 6/24
风: 2 kt, 1 beaufort

1 kt

2 kt
改变
0 ft 2.000 4.000 6.000 8.000 10.000
Cloud Cloud Cloud Cloud Cloud Cloud Cloud Cloud
OVC 8.400
METAR EBDT 130155Z AUTO VRB02KT 9999 OVC084/// 08/08 Q1019 BLU

METAR Schaffen Airfield - EBDT

Schaffen Airfield是,比利时中的小机场。 该机场位于纬度51,00416和经度5,06503。 该机场有一条跑道: 6/24. 本场的ICAO机场代码为EBDT。 机场在Bruxelles FIR中。

该航空气象观测是针对Schaffen Airfield在2024年6月13日 03:55, 当地时间进行的。

机场观察

可变方向的风很小或没有风。

可见度为10 km 或者更多。

有乌云密布在8.400 ft的高度。 破损或更高的上限为8.400 ft。

温度为8 °C,阵风为7 °C。 露点为8 °C,相对湿度为100%。 海平面上的气压为1019 hPa (QNH)。

白天

今天,太阳从05:24升起,在21:55降落。 这适用于Schaffen Airfield,世界夏令时可能有所不同。 当地时间与世界标准时间之间的时差为+2 小时。 夏令时目前正在进行中。

公司介绍

在这个机场,你可以找到跳伞中心。 本场上唯一已知的公司是Skydive Flanders - DZ Schaffen。

体会

到Vliegles.nl去找飞行课程,跳伞和其他飞行体验。 浏览页面,了解Schaffen Airfield附近所有可用的活动。 你也可以使用搜索功能来寻找你所在地附近的特定飞行课程、跳伞或其他飞行体验。

跑道

Id 标题 侧风 逆风 侧风 %
6/24 057°-237° 2 kt 1 kt 84 %

逆风成分最大的方向会被突出显示,并用于横风计算。 这并不一定意味着这个方向在使用。

乌云

8.400 ft OVC 乌云密布

温度 & 天气

温度 8 °C
露点 8 °C
相对湿度 100%
风寒 7 °C
Kp-index 1 (0-9)

白天

日出
05:24 (1:10)
中午
13:39
日落
21:55

小工具

你想在你的网站上有一个关于Schaffen Airfield的当前航空天气(METAR)的小部件吗?

显示HTML代码
报告变更